Time;durP1;ratioP1;P1;durP2;ratioP2;P2;SDS_P1;SDS_P2;PMS_P1;PMS_P2;Temp;Humidity;BMP_temperature;BMP_pressure;BME280_temperature;BME280_humidity;BME280_pressure;Samples;Min_cycle;Max_cycle;Signal;HPM_P1;HPM_P2
2023/04/20 00:01:20;;;;;;;3.90;3.33;;;10.50;61.00;;;;;;5070648;28;20460;-76
2023/04/20 00:03:47;;;;;;;4.67;3.70;;;10.50;60.90;;;;;;5031936;28;20483;-76
2023/04/20 00:06:14;;;;;;;3.90;3.50;;;10.40;61.00;;;;;;5069441;28;20458;-76
2023/04/20 00:08:42;;;;;;;4.00;3.60;;;10.40;61.10;;;;;;5067250;28;20462;-75
2023/04/20 00:11:09;;;;;;;3.60;3.30;;;10.40;61.20;;;;;;5042748;28;20531;-76
2023/04/20 00:13:36;;;;;;;6.40;3.77;;;10.30;61.20;;;;;;5066900;28;20454;-76
2023/04/20 00:16:05;;;;;;;3.73;3.40;;;10.30;61.30;;;;;;5069813;28;20455;-75
2023/04/20 00:18:32;;;;;;;4.00;3.50;;;10.20;61.30;;;;;;5055594;28;20982;-76
2023/04/20 00:20:59;;;;;;;5.07;3.90;;;10.20;61.20;;;;;;5068132;28;20447;-75
2023/04/20 00:23:26;;;;;;;3.77;3.43;;;10.20;62.20;;;;;;5055793;28;20794;-76
2023/04/20 00:25:53;;;;;;;4.13;3.73;;;10.10;61.30;;;;;;5064466;28;20562;-75
2023/04/20 00:28:20;;;;;;;3.70;3.20;;;10.10;61.60;;;;;;5063466;28;20454;-77
2023/04/20 00:30:47;;;;;;;4.13;3.33;;;10.10;61.30;;;;;;5066488;28;20539;-75
2023/04/20 00:33:15;;;;;;;3.50;3.20;;;10.10;61.20;;;;;;5057430;28;20940;-76
2023/04/20 00:35:42;;;;;;;5.47;3.53;;;10.00;61.10;;;;;;5051752;28;20448;-75
2023/04/20 00:38:08;;;;;;;4.03;3.30;;;10.00;61.10;;;;;;5065833;28;20947;-73
2023/04/20 00:40:35;;;;;;;3.80;3.43;;;10.00;61.40;;;;;;5035181;28;20461;-75
2023/04/20 00:43:10;;;;;;;4.93;3.80;;;10.00;61.90;;;;;;5071701;28;20444;-76
2023/04/20 00:45:37;;;;;;;4.40;3.90;;;10.00;62.00;;;;;;5071918;28;20486;-77
2023/04/20 00:48:04;;;;;;;5.53;4.10;;;9.90;64.10;;;;;;5071624;28;20463;-77
2023/04/20 00:50:34;;;;;;;4.23;3.27;;;9.90;63.40;;;;;;5069272;28;20830;-77
2023/04/20 00:53:02;;;;;;;3.87;3.47;;;9.90;63.40;;;;;;5050321;28;20452;-77
2023/04/20 00:55:30;;;;;;;4.57;3.73;;;9.80;63.20;;;;;;5055937;28;20478;-76
2023/04/20 00:57:57;;;;;;;5.57;3.33;;;9.80;63.10;;;;;;5051261;28;20464;-76
2023/04/20 01:00:24;;;;;;;3.70;3.40;;;9.70;63.20;;;;;;5034192;28;20455;-75
2023/04/20 01:02:51;;;;;;;4.93;3.10;;;9.60;62.70;;;;;;5056741;28;20454;-76
2023/04/20 01:05:18;;;;;;;4.17;3.47;;;9.50;62.70;;;;;;5057373;28;20506;-75
2023/04/20 01:07:46;;;;;;;4.70;3.00;;;9.50;62.90;;;;;;5058925;28;20460;-77
2023/04/20 01:10:13;;;;;;;4.23;3.23;;;9.50;63.00;;;;;;5069079;28;20990;-77
2023/04/20 01:12:40;;;;;;;4.33;3.50;;;9.50;63.10;;;;;;5056423;28;20481;-76
2023/04/20 01:15:08;;;;;;;4.83;3.50;;;9.50;63.10;;;;;;5055757;28;20448;-77
2023/04/20 01:17:36;;;;;;;4.50;3.70;;;9.50;63.20;;;;;;5071744;28;20499;-76
2023/04/20 01:20:04;;;;;;;3.73;3.33;;;9.50;63.20;;;;;;5062805;28;20456;-77
2023/04/20 01:22:42;;;;;;;3.90;3.33;;;9.50;63.30;;;;;;5058472;28;20554;-76
2023/04/20 01:25:09;;;;;;;7.57;3.70;;;9.40;63.10;;;;;;5054877;28;20499;-76
2023/04/20 01:27:36;;;;;;;3.87;3.27;;;9.40;63.20;;;;;;5072657;28;20454;-75
2023/04/20 01:30:12;;;;;;;5.13;4.00;;;9.40;63.30;;;;;;5061813;28;20461;-76
2023/04/20 01:32:40;;;;;;;4.97;3.90;;;9.30;63.40;;;;;;5071247;28;20451;-75
2023/04/20 01:35:08;;;;;;;4.30;3.90;;;9.30;63.50;;;;;;5071516;28;20531;-75
2023/04/20 01:37:36;;;;;;;5.23;3.60;;;9.30;63.60;;;;;;5063769;28;20443;-76
2023/04/20 01:40:05;;;;;;;6.47;3.60;;;9.30;63.50;;;;;;5064994;28;20480;-75
2023/04/20 01:42:32;;;;;;;3.70;3.30;;;9.20;63.70;;;;;;5054816;28;20533;-76
2023/04/20 01:44:59;;;;;;;3.73;3.33;;;9.20;63.80;;;;;;5058433;28;20483;-77
2023/04/20 01:47:26;;;;;;;4.03;3.40;;;9.10;63.60;;;;;;5054023;28;20480;-76
2023/04/20 01:49:53;;;;;;;3.43;3.13;;;9.10;63.70;;;;;;5059896;28;20483;-76
2023/04/20 01:52:20;;;;;;;4.83;3.73;;;9.10;63.90;;;;;;5074277;28;20459;-73
2023/04/20 01:54:48;;;;;;;3.97;3.43;;;9.00;63.80;;;;;;5074355;28;20997;-76
2023/04/20 01:57:15;;;;;;;5.03;3.60;;;9.00;63.90;;;;;;5060211;28;20455;-75
2023/04/20 01:59:41;;;;;;;3.83;3.50;;;9.00;63.80;;;;;;5070611;28;20691;-76
2023/04/20 02:02:08;;;;;;;4.20;3.80;;;9.00;63.70;;;;;;5070378;28;20538;-75
2023/04/20 02:04:35;;;;;;;4.73;3.30;;;8.90;63.60;;;;;;5072530;28;20569;-76
2023/04/20 02:07:02;;;;;;;4.27;3.87;;;8.90;63.90;;;;;;5072880;28;20512;-75
2023/04/20 02:09:29;;;;;;;5.73;4.17;;;8.90;64.10;;;;;;5074256;28;20458;-75
2023/04/20 02:11:57;;;;;;;4.37;3.83;;;8.90;64.10;;;;;;5056169;28;20457;-76
2023/04/20 02:14:24;;;;;;;5.27;3.47;;;8.80;64.10;;;;;;5053902;28;20538;-76
2023/04/20 02:16:52;;;;;;;3.87;3.40;;;8.80;64.00;;;;;;5071672;28;20444;-75
2023/04/20 02:19:20;;;;;;;3.57;3.27;;;8.80;63.90;;;;;;5063765;28;20445;-75
2023/04/20 02:21:46;;;;;;;4.57;3.10;;;8.80;63.80;;;;;;5067392;28;20994;-75
2023/04/20 02:24:13;;;;;;;4.60;3.20;;;8.80;63.80;;;;;;5073102;28;20455;-76
2023/04/20 02:26:40;;;;;;;4.57;3.07;;;8.70;63.70;;;;;;5063980;28;20823;-77
2023/04/20 02:29:08;;;;;;;3.73;3.33;;;8.70;63.70;;;;;;5071312;28;20459;-75
2023/04/20 02:31:35;;;;;;;5.43;3.10;;;8.70;63.70;;;;;;5053720;28;20478;-76
2023/04/20 02:34:04;;;;;;;4.00;3.33;;;8.60;63.70;;;;;;5056930;28;20448;-76
2023/04/20 02:36:31;;;;;;;3.50;2.93;;;8.60;63.80;;;;;;5065967;28;20452;-76
2023/04/20 02:38:58;;;;;;;3.67;3.37;;;8.50;63.80;;;;;;5055879;28;20487;-76
2023/04/20 02:41:25;;;;;;;3.70;3.40;;;8.50;64.00;;;;;;5054612;28;20448;-77
2023/04/20 02:43:52;;;;;;;3.73;3.30;;;8.50;64.10;;;;;;5053388;28;20475;-75
2023/04/20 02:46:20;;;;;;;4.33;3.57;;;8.50;64.20;;;;;;5055222;28;20493;-75
2023/04/20 02:48:47;;;;;;;4.20;3.17;;;8.50;64.20;;;;;;5054974;28;20453;-76
2023/04/20 02:51:14;;;;;;;3.77;3.37;;;8.30;64.00;;;;;;5053812;28;20444;-76
2023/04/20 02:53:41;;;;;;;5.47;4.40;;;8.30;64.10;;;;;;5065721;28;20501;-76
2023/04/20 02:56:08;;;;;;;3.73;3.10;;;8.20;64.30;;;;;;5060071;28;21021;-76
2023/04/20 02:58:35;;;;;;;3.17;2.87;;;8.20;64.30;;;;;;5072720;28;20487;-75
2023/04/20 03:01:02;;;;;;;3.50;3.20;;;8.20;64.30;;;;;;5066111;28;20567;-76
2023/04/20 03:03:31;;;;;;;5.10;3.53;;;8.20;64.30;;;;;;5068104;28;21043;-76
2023/04/20 03:05:58;;;;;;;3.97;3.30;;;8.20;64.20;;;;;;5070589;28;20475;-76
2023/04/20 03:08:26;;;;;;;4.77;3.13;;;8.20;64.50;;;;;;5057823;28;20455;-74
2023/04/20 03:10:53;;;;;;;4.37;3.40;;;8.20;64.40;;;;;;5070960;28;20463;-76
2023/04/20 03:13:19;;;;;;;3.60;3.17;;;8.20;64.60;;;;;;5052637;28;21124;-77
2023/04/20 03:15:46;;;;;;;4.13;3.10;;;8.20;64.40;;;;;;5054886;28;20444;-77
2023/04/20 03:18:13;;;;;;;3.90;3.50;;;8.20;64.30;;;;;;5054922;28;20846;-75
2023/04/20 03:20:41;;;;;;;3.43;3.13;;;8.20;64.40;;;;;;5059396;28;20444;-77
2023/04/20 03:23:09;;;;;;;4.30;3.63;;;8.10;64.60;;;;;;5067308;28;20542;-77
2023/04/20 03:25:35;;;;;;;4.00;3.60;;;8.10;64.70;;;;;;5051346;28;20484;-76
2023/04/20 03:28:02;;;;;;;4.77;3.90;;;8.20;64.80;;;;;;5054476;28;20812;-75
2023/04/20 03:30:29;;;;;;;5.77;3.60;;;8.10;64.60;;;;;;5066664;28;20970;-75
2023/04/20 03:32:56;;;;;;;3.87;3.50;;;8.10;64.70;;;;;;5072331;28;20471;-75
2023/04/20 03:35:23;;;;;;;4.07;3.63;;;8.10;64.80;;;;;;5060254;28;20811;-76
2023/04/20 03:37:51;;;;;;;5.37;3.63;;;8.10;64.80;;;;;;5052533;28;20459;-76
2023/04/20 03:40:18;;;;;;;4.40;4.00;;;8.10;65.10;;;;;;5062273;28;20455;-75
2023/04/20 03:42:45;;;;;;;5.83;3.70;;;8.10;65.10;;;;;;5060424;28;20947;-77
2023/04/20 03:45:13;;;;;;;4.17;3.77;;;8.00;64.90;;;;;;5052929;28;20490;-76
2023/04/20 03:47:40;;;;;;;3.60;3.30;;;8.10;64.80;;;;;;5052304;28;20486;-76
2023/04/20 03:50:08;;;;;;;5.07;3.57;;;8.10;64.70;;;;;;5066471;28;20546;-76
2023/04/20 03:52:35;;;;;;;4.13;3.47;;;8.00;64.60;;;;;;5054464;28;20962;-76
2023/04/20 03:55:04;;;;;;;4.60;3.70;;;8.00;64.40;;;;;;5052810;28;20475;-75
2023/04/20 03:57:33;;;;;;;3.83;3.43;;;8.00;64.60;;;;;;5052421;28;20970;-75
2023/04/20 04:00:00;;;;;;;4.17;3.77;;;8.00;64.60;;;;;;5052919;28;20452;-77
2023/04/20 04:02:27;;;;;;;4.30;3.83;;;7.90;64.50;;;;;;5054705;28;20563;-75
2023/04/20 04:04:53;;;;;;;6.07;4.13;;;7.90;64.50;;;;;;5072681;28;20879;-76
2023/04/20 04:07:21;;;;;;;5.30;4.63;;;7.90;64.50;;;;;;5066744;28;20959;-76
2023/04/20 04:09:48;;;;;;;4.70;3.70;;;7.90;64.50;;;;;;5072284;28;20500;-76
2023/04/20 04:12:16;;;;;;;4.33;3.43;;;7.80;64.40;;;;;;5072168;28;20451;-76
2023/04/20 04:14:43;;;;;;;5.27;3.53;;;7.70;65.00;;;;;;5072714;28;20458;-80
2023/04/20 04:17:10;;;;;;;4.83;3.87;;;7.60;65.20;;;;;;5084023;28;20507;-77
2023/04/20 04:19:37;;;;;;;4.13;3.73;;;7.60;65.20;;;;;;5069980;28;20517;-78
2023/04/20 04:22:04;;;;;;;4.33;3.67;;;7.60;65.50;;;;;;5073094;28;20444;-76
2023/04/20 04:24:32;;;;;;;4.97;3.60;;;7.60;65.50;;;;;;5048496;28;20571;-77
2023/04/20 04:27:01;;;;;;;3.80;3.50;;;7.60;65.40;;;;;;5050900;28;21039;-77
2023/04/20 04:29:29;;;;;;;4.23;3.80;;;7.60;65.20;;;;;;5062388;28;20451;-76
2023/04/20 04:31:57;;;;;;;5.47;3.70;;;7.60;65.00;;;;;;5063406;28;20461;-75
2023/04/20 04:34:28;;;;;;;3.97;3.50;;;7.60;65.20;;;;;;5056231;28;20547;-78
2023/04/20 04:36:55;;;;;;;4.33;3.50;;;7.70;65.40;;;;;;5052106;28;20994;-75
2023/04/20 04:39:24;;;;;;;5.10;3.63;;;7.60;65.20;;;;;;5064932;28;20456;-76
2023/04/20 04:41:51;;;;;;;5.77;3.97;;;7.70;65.30;;;;;;5058521;28;20448;-77
2023/04/20 04:44:17;;;;;;;4.43;4.00;;;7.70;65.30;;;;;;5054967;28;20452;-76
2023/04/20 04:46:46;;;;;;;4.87;4.10;;;7.70;65.50;;;;;;5055693;28;20476;-76
2023/04/20 04:49:13;;;;;;;4.20;3.80;;;7.70;65.60;;;;;;5055500;28;20495;-75
2023/04/20 04:51:40;;;;;;;5.13;4.07;;;7.70;65.70;;;;;;5055866;28;20452;-74
2023/04/20 04:54:06;;;;;;;6.20;4.70;;;7.80;65.80;;;;;;5056034;28;20515;-74
2023/04/20 04:56:33;;;;;;;4.47;4.03;;;7.80;65.60;;;;;;5056172;28;20846;-76
2023/04/20 04:59:00;;;;;;;5.13;4.47;;;7.70;65.40;;;;;;5054360;28;21018;-76
2023/04/20 05:01:27;;;;;;;4.60;4.10;;;7.70;66.00;;;;;;5054811;28;20480;-76
2023/04/20 05:03:55;;;;;;;6.43;5.10;;;7.70;66.10;;;;;;5055239;28;20480;-76
2023/04/20 05:06:22;;;;;;;6.03;4.93;;;7.70;66.40;;;;;;5055524;28;20492;-75
2023/04/20 05:08:49;;;;;;;7.93;4.73;;;7.80;66.50;;;;;;5054538;28;20480;-77
2023/04/20 05:11:17;;;;;;;9.50;6.23;;;7.80;66.60;;;;;;5055949;28;20443;-77
2023/04/20 05:13:44;;;;;;;6.43;5.77;;;7.90;66.70;;;;;;5064660;28;20778;-77
2023/04/20 05:16:11;;;;;;;9.60;7.67;;;7.90;66.90;;;;;;5066237;28;20559;-76
2023/04/20 05:18:41;;;;;;;6.93;6.23;;;7.90;66.90;;;;;;5063196;28;20455;-76
2023/04/20 05:21:09;;;;;;;10.23;8.30;;;8.00;67.00;;;;;;5054296;28;20448;-74
2023/04/20 05:23:36;;;;;;;11.73;10.13;;;8.10;67.10;;;;;;5070498;28;20475;-76
2023/04/20 05:26:02;;;;;;;8.83;7.90;;;8.10;67.30;;;;;;5075463;28;20464;-74
2023/04/20 05:28:29;;;;;;;9.17;7.57;;;8.20;67.50;;;;;;5060742;28;20455;-76
2023/04/20 05:30:56;;;;;;;10.33;7.10;;;8.20;67.40;;;;;;5068534;28;20489;-75
2023/04/20 05:33:23;;;;;;;9.03;6.33;;;8.20;67.90;;;;;;5055956;28;20531;-77
2023/04/20 05:35:50;;;;;;;6.30;5.60;;;8.30;68.10;;;;;;5054280;28;20498;-77
2023/04/20 05:38:19;;;;;;;6.13;4.90;;;8.40;68.00;;;;;;5059259;28;20463;-77
2023/04/20 05:40:45;;;;;;;8.57;6.00;;;8.50;67.70;;;;;;5073358;28;20452;-77
2023/04/20 05:43:12;;;;;;;9.77;6.37;;;8.60;67.60;;;;;;5062332;28;20448;-76
2023/04/20 05:45:39;;;;;;;6.00;5.40;;;8.60;67.90;;;;;;5067920;28;20479;-75
2023/04/20 05:48:06;;;;;;;5.83;4.60;;;8.80;67.40;;;;;;5074420;28;20435;-76
2023/04/20 05:50:33;;;;;;;6.17;4.97;;;8.80;66.70;;;;;;5074020;28;20458;-76
2023/04/20 05:53:00;;;;;;;4.63;4.10;;;8.90;66.30;;;;;;5062172;28;20972;-76
2023/04/20 05:55:28;;;;;;;5.63;4.63;;;9.00;65.70;;;;;;5056578;28;20498;-74
2023/04/20 05:57:55;;;;;;;6.57;4.80;;;9.20;65.80;;;;;;5054814;28;20472;-74
2023/04/20 06:00:23;;;;;;;4.47;4.07;;;9.30;65.00;;;;;;5054797;28;20908;-76
2023/04/20 06:02:50;;;;;;;6.23;4.70;;;9.30;65.00;;;;;;5054609;28;20533;-75
2023/04/20 06:05:16;;;;;;;6.00;4.80;;;9.40;65.50;;;;;;5055324;28;20480;-75
2023/04/20 06:07:43;;;;;;;5.77;4.63;;;9.50;65.60;;;;;;5054416;28;20479;-75
2023/04/20 06:10:11;;;;;;;7.83;4.57;;;9.60;65.70;;;;;;5053322;28;20457;-75
2023/04/20 06:12:39;;;;;;;4.60;4.20;;;9.70;65.70;;;;;;5061836;28;20484;-75
2023/04/20 06:15:09;;;;;;;6.73;4.70;;;9.70;65.10;;;;;;5054616;28;20456;-72
2023/04/20 06:17:39;;;;;;;6.17;5.00;;;9.80;65.30;;;;;;5053183;28;20502;-75
2023/04/20 06:20:07;;;;;;;7.87;4.70;;;9.90;65.60;;;;;;5055182;28;20445;-74
2023/04/20 06:22:35;;;;;;;5.70;4.57;;;9.90;65.30;;;;;;5075129;28;20436;-72
2023/04/20 06:25:02;;;;;;;8.23;4.80;;;10.00;64.60;;;;;;5073727;28;20465;-75
2023/04/20 06:27:28;;;;;;;6.77;4.90;;;10.10;64.40;;;;;;5054733;28;20492;-75
2023/04/20 06:29:57;;;;;;;5.03;4.53;;;10.10;63.90;;;;;;5054278;28;20448;-75
2023/04/20 06:32:24;;;;;;;5.43;4.80;;;10.20;64.30;;;;;;5057621;28;20530;-75
2023/04/20 06:34:51;;;;;;;5.00;4.50;;;10.40;64.40;;;;;;5067752;28;20478;-75
2023/04/20 06:37:18;;;;;;;8.43;4.90;;;10.40;64.40;;;;;;5064777;28;20459;-75
2023/04/20 06:39:45;;;;;;;5.17;4.47;;;10.50;64.50;;;;;;5055188;28;20452;-76
2023/04/20 06:42:12;;;;;;;5.30;4.80;;;10.60;64.30;;;;;;5057338;28;20490;-76
2023/04/20 06:44:39;;;;;;;6.03;5.10;;;10.70;64.20;;;;;;5058656;28;20943;-75
2023/04/20 06:47:08;;;;;;;6.60;4.67;;;10.80;64.40;;;;;;5055357;28;20519;-75
2023/04/20 06:49:36;;;;;;;6.23;5.33;;;10.80;64.00;;;;;;5054897;28;21113;-74
2023/04/20 06:52:03;;;;;;;5.73;5.07;;;10.90;63.30;;;;;;5066090;28;20791;-74
2023/04/20 06:54:30;;;;;;;6.00;4.83;;;11.00;63.00;;;;;;5059897;28;20560;-76
2023/04/20 06:56:57;;;;;;;4.53;4.10;;;11.10;62.50;;;;;;5068918;28;20486;-74
2023/04/20 06:59:24;;;;;;;5.67;5.03;;;11.10;62.70;;;;;;5068138;28;20503;-75
2023/04/20 07:01:51;;;;;;;5.17;4.40;;;11.30;61.50;;;;;;5064560;28;20458;-75
2023/04/20 07:04:21;;;;;;;6.67;4.30;;;11.30;61.20;;;;;;5053189;28;20448;-75
2023/04/20 07:06:49;;;;;;;7.23;4.40;;;11.40;61.40;;;;;;5060585;28;20488;-76
2023/04/20 07:09:18;;;;;;;5.67;4.80;;;11.50;60.60;;;;;;5057582;28;20451;-76
2023/04/20 07:11:45;;;;;;;5.30;4.80;;;11.50;61.00;;;;;;5071708;28;21187;-75
2023/04/20 07:14:12;;;;;;;6.17;4.43;;;11.70;60.60;;;;;;5065677;28;20526;-74
2023/04/20 07:16:39;;;;;;;4.70;4.20;;;11.70;60.60;;;;;;5060951;28;20530;-74
2023/04/20 07:19:05;;;;;;;6.23;4.70;;;11.80;60.80;;;;;;5073160;28;20485;-75
2023/04/20 07:21:34;;;;;;;6.47;4.83;;;11.90;61.30;;;;;;5082191;28;20493;-75
2023/04/20 07:24:01;;;;;;;5.27;4.43;;;12.00;61.20;;;;;;5053210;28;20468;-74
2023/04/20 07:26:28;;;;;;;5.37;4.13;;;12.00;60.70;;;;;;5068979;28;20570;-75
2023/04/20 07:28:55;;;;;;;5.47;4.40;;;12.10;60.50;;;;;;5055387;28;20452;-74
2023/04/20 07:31:22;;;;;;;5.87;5.00;;;12.20;60.70;;;;;;5054272;28;20881;-75
2023/04/20 07:33:50;;;;;;;5.10;4.43;;;12.30;60.60;;;;;;5053113;28;20552;-74
2023/04/20 07:36:18;;;;;;;6.33;5.37;;;12.40;60.60;;;;;;5066406;28;20475;-75
2023/04/20 07:38:47;;;;;;;8.63;5.27;;;12.40;61.00;;;;;;5072799;28;20483;-74
2023/04/20 07:41:15;;;;;;;5.27;4.27;;;12.60;61.30;;;;;;5072013;28;20474;-75
2023/04/20 07:43:43;;;;;;;5.30;4.50;;;12.60;60.70;;;;;;5055796;28;20747;-75
2023/04/20 07:46:10;;;;;;;6.07;4.73;;;12.80;60.40;;;;;;5069217;28;20534;-75
2023/04/20 07:48:38;;;;;;;6.13;5.03;;;12.80;59.60;;;;;;5068002;28;20448;-74
2023/04/20 07:51:05;;;;;;;6.57;4.63;;;13.00;59.60;;;;;;5064395;28;20535;-75
2023/04/20 07:53:34;;;;;;;6.57;4.57;;;13.00;58.80;;;;;;5072833;28;20453;-77
2023/04/20 07:56:02;;;;;;;6.97;4.93;;;13.10;58.80;;;;;;5071885;28;20566;-75
2023/04/20 07:58:29;;;;;;;6.47;5.17;;;13.10;58.40;;;;;;5062170;28;20472;-75
2023/04/20 08:00:57;;;;;;;5.47;4.93;;;13.20;58.20;;;;;;5022811;28;20842;-75
2023/04/20 08:03:26;;;;;;;5.10;4.40;;;13.20;57.70;;;;;;5058700;28;20539;-75
2023/04/20 08:05:52;;;;;;;6.37;4.47;;;13.20;57.50;;;;;;5051084;28;20544;-74
2023/04/20 08:08:19;;;;;;;6.00;4.80;;;13.20;57.80;;;;;;5063871;28;20492;-79
2023/04/20 08:10:46;;;;;;;5.00;4.10;;;13.30;57.80;;;;;;5068102;28;20441;-74
2023/04/20 08:13:14;;;;;;;7.60;4.73;;;13.40;57.40;;;;;;5055021;28;20436;-75
2023/04/20 08:15:41;;;;;;;7.10;4.90;;;13.50;57.70;;;;;;5056529;28;21018;-75
2023/04/20 08:18:10;;;;;;;4.80;4.40;;;13.60;57.80;;;;;;5029859;28;20449;-74
2023/04/20 08:20:36;;;;;;;5.97;4.77;;;13.60;57.30;;;;;;5069149;28;20494;-75
2023/04/20 08:23:03;;;;;;;7.73;5.10;;;13.70;57.10;;;;;;5052574;28;20444;-76
2023/04/20 08:25:32;;;;;;;5.00;4.40;;;13.80;56.60;;;;;;5053585;28;20817;-73
2023/04/20 08:27:59;;;;;;;7.47;5.10;;;13.90;57.30;;;;;;5064628;28;20999;-74
2023/04/20 08:30:28;;;;;;;5.33;4.60;;;14.00;58.20;;;;;;5036607;28;20945;-74
2023/04/20 08:32:55;;;;;;;5.30;4.37;;;14.10;57.30;;;;;;5061619;28;20475;-75
2023/04/20 08:35:22;;;;;;;5.20;4.50;;;14.20;56.60;;;;;;5051948;28;20468;-74
2023/04/20 08:37:49;;;;;;;6.47;5.00;;;14.20;56.00;;;;;;5052472;28;20460;-74
2023/04/20 08:40:18;;;;;;;7.80;5.27;;;14.30;56.40;;;;;;5051431;28;20471;-75
2023/04/20 08:42:46;;;;;;;6.67;4.80;;;14.30;55.90;;;;;;5066443;28;20462;-74
2023/04/20 08:45:13;;;;;;;5.83;4.40;;;14.30;56.40;;;;;;5053418;28;20539;-75
2023/04/20 08:47:43;;;;;;;6.00;4.93;;;14.50;57.10;;;;;;5051889;28;20480;-75
2023/04/20 08:50:10;;;;;;;5.13;4.63;;;14.50;56.50;;;;;;5051846;28;21026;-74
2023/04/20 08:52:38;;;;;;;5.57;4.93;;;14.60;56.10;;;;;;5064183;28;20542;-75
2023/04/20 08:55:07;;;;;;;5.43;4.93;;;14.70;56.70;;;;;;5069994;28;20480;-74
2023/04/20 08:57:34;;;;;;;5.93;5.03;;;14.90;56.80;;;;;;5059487;28;20459;-74
2023/04/20 09:00:07;;;;;;;5.20;4.67;;;14.90;55.70;;;;;;5051933;28;20539;-74
2023/04/20 09:02:34;;;;;;;4.97;4.50;;;15.00;56.00;;;;;;5060472;28;20970;-73
2023/04/20 09:05:04;;;;;;;6.93;4.60;;;15.10;56.20;;;;;;5034073;28;20448;-75
2023/04/20 09:07:31;;;;;;;6.17;4.70;;;15.20;55.50;;;;;;5071567;28;20484;-74
2023/04/20 09:10:00;;;;;;;5.23;4.70;;;15.30;54.70;;;;;;5071459;28;20448;-74
2023/04/20 09:12:28;;;;;;;7.20;4.80;;;15.30;54.90;;;;;;5052319;28;20551;-74
2023/04/20 09:14:55;;;;;;;5.20;4.70;;;15.40;54.80;;;;;;5051699;28;21006;-74
2023/04/20 09:17:32;;;;;;;6.43;4.83;;;15.60;54.20;;;;;;5056883;28;20460;-75
2023/04/20 09:19:59;;;;;;;5.13;4.63;;;15.70;54.70;;;;;;5057003;28;20482;-75
2023/04/20 09:22:31;;;;;;;5.53;4.50;;;15.80;54.50;;;;;;5069714;28;20462;-74
2023/04/20 09:24:59;;;;;;;4.93;4.33;;;15.90;53.30;;;;;;5070995;28;20459;-74
2023/04/20 09:27:26;;;;;;;4.87;4.37;;;16.10;53.90;;;;;;5054050;28;20487;-74
2023/04/20 09:29:59;;;;;;;7.17;4.60;;;16.30;54.50;;;;;;5054911;28;20448;-74
2023/04/20 09:32:28;;;;;;;5.83;5.00;;;16.40;53.40;;;;;;5056376;28;20490;-74
2023/04/20 09:34:55;;;;;;;6.30;4.80;;;16.50;52.20;;;;;;5055053;28;20447;-74
2023/04/20 09:37:22;;;;;;;5.50;4.90;;;16.60;52.70;;;;;;5056045;28;20440;-75
2023/04/20 09:39:51;;;;;;;6.07;5.33;;;16.70;52.80;;;;;;5068184;28;20546;-75
2023/04/20 09:42:18;;;;;;;5.20;4.70;;;16.70;52.40;;;;;;5061473;28;20459;-74
2023/04/20 09:44:45;;;;;;;4.77;4.20;;;16.90;52.40;;;;;;5055648;28;20459;-75
2023/04/20 09:47:17;;;;;;;5.97;4.80;;;17.00;51.80;;;;;;5055907;28;20486;-75
2023/04/20 09:49:45;;;;;;;5.47;4.93;;;17.20;51.90;;;;;;5054400;28;20452;-75
2023/04/20 09:52:16;;;;;;;4.90;4.50;;;17.30;52.20;;;;;;5054416;28;20475;-75
2023/04/20 09:54:44;;;;;;;6.40;4.73;;;17.40;51.70;;;;;;5069939;28;20452;-75
2023/04/20 09:57:13;;;;;;;5.50;4.90;;;17.50;51.60;;;;;;5055508;28;20446;-74
2023/04/20 09:59:43;;;;;;;4.90;4.40;;;17.50;51.30;;;;;;5065027;28;20545;-75
2023/04/20 10:02:12;;;;;;;5.30;4.77;;;17.50;51.10;;;;;;5053878;28;20447;-75
2023/04/20 10:04:52;;;;;;;5.67;5.13;;;17.50;50.90;;;;;;5069553;28;20486;-75
2023/04/20 10:07:25;;;;;;;5.77;5.00;;;17.40;50.20;;;;;;5063420;28;20486;-74
2023/04/20 10:10:03;;;;;;;6.10;5.50;;;17.30;49.90;;;;;;5074446;28;20450;-75
2023/04/20 10:12:32;;;;;;;5.70;5.20;;;17.20;49.60;;;;;;5055473;28;20484;-75
2023/04/20 10:14:59;;;;;;;5.27;4.77;;;17.20;49.90;;;;;;5054232;28;20492;-75
2023/04/20 10:17:31;;;;;;;6.87;5.00;;;17.10;50.10;;;;;;5066130;28;20868;-75
2023/04/20 10:19:58;;;;;;;6.27;5.60;;;17.00;50.10;;;;;;5063588;28;20462;-75
2023/04/20 10:22:31;;;;;;;5.80;5.20;;;17.00;50.10;;;;;;5074347;28;20554;-74
2023/04/20 10:24:59;;;;;;;6.43;5.37;;;16.90;50.30;;;;;;5071045;28;20982;-76
2023/04/20 10:27:26;;;;;;;7.23;5.10;;;16.90;50.30;;;;;;5073716;28;20506;-74
2023/04/20 10:29:55;;;;;;;6.53;5.07;;;16.90;50.10;;;;;;5066008;28;20491;-74
2023/04/20 10:32:23;;;;;;;5.33;4.83;;;16.90;50.60;;;;;;5053413;28;20476;-73
2023/04/20 10:35:01;;;;;;;5.80;5.20;;;16.80;50.40;;;;;;5055524;28;20457;-75
2023/04/20 10:37:28;;;;;;;5.27;4.77;;;16.70;49.80;;;;;;5056026;28;20493;-74
2023/04/20 10:39:55;;;;;;;5.63;5.10;;;16.60;50.30;;;;;;5082526;28;20816;-75
2023/04/20 10:42:22;;;;;;;6.10;4.77;;;16.60;50.50;;;;;;5095456;28;20442;-75
2023/04/20 10:44:50;;;;;;;6.30;5.23;;;16.50;50.60;;;;;;5082738;28;20451;-75
2023/04/20 10:47:28;;;;;;;7.23;5.40;;;16.60;50.50;;;;;;5082324;28;20515;-75
2023/04/20 10:49:55;;;;;;;5.77;4.57;;;16.50;50.50;;;;;;5060419;28;20474;-74
2023/04/20 10:52:33;;;;;;;5.53;5.00;;;16.50;50.70;;;;;;5072998;28;20847;-74
2023/04/20 10:55:00;;;;;;;6.20;5.23;;;16.50;50.50;;;;;;5068367;28;20440;-75
2023/04/20 10:57:26;;;;;;;7.43;5.67;;;16.40;50.50;;;;;;5058074;28;20448;-75
2023/04/20 10:59:56;;;;;;;7.00;5.70;;;16.30;51.80;;;;;;5053610;28;21010;-74
2023/04/20 11:02:24;;;;;;;8.43;6.03;;;16.20;53.10;;;;;;5053998;28;20488;-74
2023/04/20 11:04:52;;;;;;;5.73;5.13;;;16.20;53.90;;;;;;5054674;28;20481;-74
2023/04/20 11:07:19;;;;;;;6.60;5.17;;;16.10;54.40;;;;;;5034295;28;20585;-74
2023/04/20 11:09:54;;;;;;;7.77;5.53;;;16.10;55.10;;;;;;5067974;28;20521;-75
2023/04/20 11:12:21;;;;;;;6.93;5.23;;;16.10;56.10;;;;;;5060546;28;20484;-75
2023/04/20 11:14:52;;;;;;;6.30;5.37;;;16.10;55.50;;;;;;5054452;28;20474;-75
2023/04/20 11:17:19;;;;;;;5.63;5.13;;;16.10;56.70;;;;;;5053476;28;20449;-75
2023/04/20 11:19:48;;;;;;;5.80;5.30;;;16.10;57.10;;;;;;5067334;28;20811;-75
2023/04/20 11:22:22;;;;;;;6.70;5.70;;;16.20;57.80;;;;;;5037556;28;20462;-74
2023/04/20 11:24:49;;;;;;;6.07;5.47;;;16.20;57.60;;;;;;5071983;28;20464;-76
2023/04/20 11:27:20;;;;;;;6.20;5.60;;;16.20;57.10;;;;;;5062275;28;20443;-75
2023/04/20 11:29:57;;;;;;;5.97;5.37;;;16.30;58.10;;;;;;5052781;28;20454;-73
2023/04/20 11:32:24;;;;;;;5.37;4.90;;;16.40;57.40;;;;;;5063209;28;20443;-73
2023/04/20 11:35:00;;;;;;;7.53;5.13;;;16.60;57.60;;;;;;5072746;28;20542;-72
2023/04/20 11:37:28;;;;;;;5.67;4.97;;;16.70;56.40;;;;;;5062378;28;20482;-72
2023/04/20 11:40:04;;;;;;;6.60;5.90;;;16.80;55.10;;;;;;5059281;28;20459;-71
2023/04/20 11:42:31;;;;;;;6.20;5.07;;;16.90;55.00;;;;;;5061793;28;20990;-73
2023/04/20 11:44:59;;;;;;;6.33;5.73;;;17.00;54.50;;;;;;5054957;28;20448;-72
2023/04/20 11:47:26;;;;;;;5.97;5.37;;;17.00;54.00;;;;;;5062317;28;20810;-73
2023/04/20 11:49:53;;;;;;;5.70;5.20;;;17.00;53.10;;;;;;5058272;28;20517;-74
2023/04/20 11:52:21;;;;;;;5.47;4.80;;;16.90;52.10;;;;;;5060331;28;20447;-74
2023/04/20 11:54:48;;;;;;;6.00;5.40;;;16.70;52.80;;;;;;5071303;28;20453;-73
2023/04/20 11:57:16;;;;;;;5.73;5.20;;;16.60;52.70;;;;;;5072054;28;20479;-73
2023/04/20 11:59:46;;;;;;;7.23;5.00;;;16.60;52.90;;;;;;5065507;28;20479;-73
2023/04/20 12:02:13;;;;;;;5.97;4.90;;;16.60;52.70;;;;;;5051846;28;20452;-72
2023/04/20 12:04:40;;;;;;;4.90;4.40;;;16.50;51.90;;;;;;5065312;28;20452;-73
2023/04/20 12:07:07;;;;;;;5.07;4.50;;;16.40;51.90;;;;;;5069600;28;20454;-73
2023/04/20 12:09:37;;;;;;;6.13;4.93;;;16.40;51.70;;;;;;5068693;28;20585;-72
2023/04/20 12:12:04;;;;;;;4.70;4.30;;;16.40;51.20;;;;;;5071263;28;20451;-72
2023/04/20 12:14:32;;;;;;;5.80;4.50;;;16.30;51.40;;;;;;5069738;28;20819;-72
2023/04/20 12:16:59;;;;;;;5.97;4.57;;;16.30;51.60;;;;;;5060488;28;20562;-73
2023/04/20 12:19:26;;;;;;;7.73;5.27;;;16.30;51.80;;;;;;5054141;28;20443;-73
2023/04/20 12:21:53;;;;;;;4.93;4.43;;;16.20;51.60;;;;;;5070032;28;20576;-72
2023/04/20 12:24:21;;;;;;;6.17;4.60;;;16.20;51.40;;;;;;5067157;28;20459;-72
2023/04/20 12:26:49;;;;;;;6.27;4.90;;;16.20;51.80;;;;;;5068551;28;20451;-72
2023/04/20 12:29:16;;;;;;;4.90;4.17;;;16.20;50.80;;;;;;5064798;28;20506;-72
2023/04/20 12:31:43;;;;;;;5.87;4.80;;;16.20;50.80;;;;;;5066658;28;20448;-73
2023/04/20 12:34:10;;;;;;;4.93;4.30;;;16.20;51.10;;;;;;5070925;28;20557;-73
2023/04/20 12:36:37;;;;;;;4.70;4.30;;;16.20;51.10;;;;;;5071633;28;20479;-72
2023/04/20 12:39:04;;;;;;;5.63;4.50;;;16.20;50.50;;;;;;5050894;28;20448;-72
2023/04/20 12:41:31;;;;;;;5.10;4.47;;;16.10;51.00;;;;;;5050544;28;20453;-72
2023/04/20 12:44:00;;;;;;;6.67;4.33;;;16.00;50.40;;;;;;5054386;28;20447;-72
2023/04/20 12:46:27;;;;;;;5.30;4.80;;;15.90;50.80;;;;;;5064006;28;20481;-73
2023/04/20 12:48:55;;;;;;;4.80;4.30;;;15.90;51.20;;;;;;5051170;28;20480;-72
2023/04/20 12:51:23;;;;;;;5.93;4.83;;;15.90;51.80;;;;;;5087133;28;20485;-81
2023/04/20 12:53:50;;;;;;;5.27;4.50;;;15.80;51.60;;;;;;5062313;28;20847;-82